Time;durP1;ratioP1;P1;durP2;ratioP2;P2;SDS_P1;SDS_P2;PMS_P1;PMS_P2;Temp;Humidity;BMP_temperature;BMP_pressure;BME280_temperature;BME280_humidity;BME280_pressure;Samples;Min_cycle;Max_cycle;Signal;HPM_P1;HPM_P2
2021/09/23 00:01:29;;;;;;;;;12.50;11.00;;;;;14.81;62.66;101646.94;5056787;28;60795;-61
2021/09/23 00:06:39;;;;;;;;;13.00;10.25;;;;;14.81;62.21;101631.06;5057251;28;45327;-61
2021/09/23 00:09:05;;;;;;;;;11.00;9.50;;;;;14.79;62.50;101627.72;5056604;28;67566;-60
2021/09/23 00:11:30;;;;;;;;;11.25;8.50;;;;;14.77;62.78;101627.00;5057349;28;45355;-61
2021/09/23 00:13:58;;;;;;;;;12.75;9.75;;;;;14.77;62.74;101635.78;5056582;28;62994;-61
2021/09/23 00:16:23;;;;;;;;;13.75;11.50;;;;;14.75;62.57;101632.41;5057411;28;45269;-61
2021/09/23 00:18:49;;;;;;;;;12.25;10.25;;;;;14.75;62.57;101635.06;5056437;28;67104;-60
2021/09/23 00:21:14;;;;;;;;;16.50;12.25;;;;;14.74;62.25;101632.56;5038903;28;45633;-60
2021/09/23 00:23:40;;;;;;;;;13.50;9.50;;;;;14.71;62.46;101630.19;5056016;28;66339;-60
2021/09/23 00:26:05;;;;;;;;;11.00;11.00;;;;;14.66;62.63;101626.13;5056146;28;65000;-60
2021/09/23 00:28:30;;;;;;;;;12.50;11.50;;;;;14.65;62.25;101620.94;5057032;28;45300;-60
2021/09/23 00:30:56;;;;;;;;;13.00;12.00;;;;;14.61;62.31;101617.75;5056033;28;69253;-61
2021/09/23 00:33:21;;;;;;;;;14.25;12.25;;;;;14.56;62.90;101614.69;5055882;28;68864;-60
2021/09/23 00:35:46;;;;;;;;;11.25;8.75;;;;;14.53;62.58;101620.22;5056338;28;63439;-60
2021/09/23 00:38:12;;;;;;;;;12.50;10.50;;;;;14.49;62.53;101616.19;5056216;28;65353;-61
2021/09/23 00:40:37;;;;;;;;;10.50;10.25;;;;;14.46;62.65;101616.47;5056043;28;63466;-60
2021/09/23 00:43:05;;;;;;;;;10.50;10.00;;;;;14.42;62.48;101610.63;5056659;28;45422;-60
2021/09/23 00:45:30;;;;;;;;;13.00;10.75;;;;;14.40;63.04;101610.72;5056803;28;45430;-60
2021/09/23 00:47:55;;;;;;;;;10.25;9.25;;;;;14.39;63.40;101605.59;5056928;28;45424;-60
2021/09/23 00:50:22;;;;;;;;;11.25;11.00;;;;;14.36;63.29;101598.75;5056760;28;45359;-60
2021/09/23 00:52:48;;;;;;;;;12.25;11.25;;;;;14.36;63.51;101611.16;5038780;28;46099;-61
2021/09/23 00:55:13;;;;;;;;;12.50;11.50;;;;;14.33;63.38;101599.00;5055726;28;45370;-61
2021/09/23 00:57:39;;;;;;;;;12.75;12.25;;;;;14.31;63.35;101595.66;5056346;28;45331;-61
2021/09/23 01:00:06;;;;;;;;;17.50;14.00;;;;;14.29;63.14;101597.63;5056550;28;45610;-61
2021/09/23 01:02:31;;;;;;;;;11.50;10.25;;;;;14.27;63.17;101591.66;5056194;28;46673;-60
2021/09/23 01:04:57;;;;;;;;;13.25;11.25;;;;;14.29;63.06;101580.94;5055779;28;64462;-60
2021/09/23 01:07:22;;;;;;;;;12.50;10.25;;;;;14.26;63.49;101566.19;5055871;28;62091;-60
2021/09/23 01:09:52;;;;;;;;;9.75;8.75;;;;;14.21;63.00;101560.47;5056525;28;45220;-60
2021/09/23 01:12:18;;;;;;;;;8.00;8.00;;;;;14.19;63.83;101555.28;5056390;28;46353;-60
2021/09/23 01:14:44;;;;;;;;;10.25;10.00;;;;;14.17;63.55;101548.50;5056450;28;45860;-60
2021/09/23 01:17:09;;;;;;;;;14.25;11.25;;;;;14.18;64.04;101548.34;5056557;28;45503;-60
2021/09/23 01:19:35;;;;;;;;;16.00;14.00;;;;;14.18;63.70;101547.53;5038404;28;45527;-60
2021/09/23 01:22:00;;;;;;;;;13.00;12.25;;;;;14.18;62.99;101536.94;5038131;28;46308;-60
2021/09/23 01:24:26;;;;;;;;;15.75;12.75;;;;;14.16;62.57;101538.88;5038349;28;45475;-60
2021/09/23 01:26:52;;;;;;;;;14.00;11.25;;;;;14.15;62.76;101537.22;5056382;28;45371;-60
2021/09/23 01:29:17;;;;;;;;;15.50;11.50;;;;;14.15;62.71;101534.56;5056098;28;48632;-60
2021/09/23 01:31:45;;;;;;;;;13.00;10.75;;;;;14.14;63.17;101530.25;5055390;28;66641;-60
2021/09/23 01:34:11;;;;;;;;;14.25;11.25;;;;;14.14;63.03;101527.63;5055290;28;65959;-60
2021/09/23 01:36:36;;;;;;;;;11.25;10.00;;;;;14.11;63.02;101523.41;5055208;28;68497;-60
2021/09/23 01:39:02;;;;;;;;;13.25;11.75;;;;;14.12;63.29;101524.28;5056121;28;45523;-60
2021/09/23 01:41:27;;;;;;;;;14.75;13.25;;;;;14.10;63.40;101525.25;5055103;28;69840;-60
2021/09/23 01:43:53;;;;;;;;;13.00;11.25;;;;;14.09;63.23;101522.72;5055208;28;66437;-60
2021/09/23 01:46:18;;;;;;;;;13.75;12.25;;;;;14.06;62.73;101515.91;5055497;28;57054;-60
2021/09/23 01:48:43;;;;;;;;;14.00;11.25;;;;;14.05;62.45;101521.31;5055344;28;65084;-60
2021/09/23 01:51:09;;;;;;;;;13.75;13.25;;;;;14.03;62.85;101513.53;5054800;28;72474;-60
2021/09/23 01:53:34;;;;;;;;;12.25;11.00;;;;;14.01;63.05;101517.28;5055832;28;45338;-60
2021/09/23 01:55:59;;;;;;;;;15.75;11.75;;;;;13.97;62.93;101508.78;5055515;28;56541;-60
2021/09/23 01:58:25;;;;;;;;;13.75;10.50;;;;;13.95;63.38;101508.06;5055274;28;62273;-61
2021/09/23 02:00:50;;;;;;;;;13.75;12.25;;;;;13.91;63.35;101510.16;5054946;28;66720;-61
2021/09/23 02:03:15;;;;;;;;;11.00;9.75;;;;;13.85;63.77;101512.50;5055147;28;62890;-60
2021/09/23 02:05:41;;;;;;;;;15.50;10.25;;;;;13.82;63.54;101508.31;5036996;28;63103;-60
2021/09/23 02:08:06;;;;;;;;;13.00;11.00;;;;;13.79;63.87;101504.13;5057538;28;54450;-60
2021/09/23 02:10:32;;;;;;;;;13.50;13.00;;;;;13.78;63.87;101504.28;5059070;28;46362;-60
2021/09/23 02:12:57;;;;;;;;;16.50;14.25;;;;;13.77;63.53;101508.72;5058211;28;63842;-60
2021/09/23 02:15:22;;;;;;;;;20.00;18.00;;;;;13.76;63.44;101501.78;5059092;28;45405;-60
2021/09/23 02:17:48;;;;;;;;;11.00;10.00;;;;;13.76;63.63;101500.94;5058775;28;52671;-60
2021/09/23 02:20:13;;;;;;;;;13.50;12.00;;;;;13.76;64.04;101496.50;5058180;28;65022;-60
2021/09/23 02:22:39;;;;;;;;;11.25;10.75;;;;;13.74;63.87;101489.66;5058800;28;45497;-61
2021/09/23 02:25:04;;;;;;;;;14.00;12.50;;;;;13.72;63.47;101492.44;5059017;28;45442;-60
2021/09/23 02:27:30;;;;;;;;;15.25;12.75;;;;;13.70;63.78;101496.16;5058908;28;45582;-60
2021/09/23 02:29:55;;;;;;;;;9.75;9.50;;;;;13.67;63.56;101485.88;5058302;28;57154;-60
2021/09/23 02:32:21;;;;;;;;;11.00;11.00;;;;;13.62;63.87;101479.19;5058204;28;65371;-60
2021/09/23 02:34:46;;;;;;;;;10.50;9.75;;;;;13.61;63.86;101487.25;5058937;28;45646;-60
2021/09/23 02:37:11;;;;;;;;;13.25;12.75;;;;;13.59;64.23;101483.91;5058878;28;45556;-60
2021/09/23 02:39:37;;;;;;;;;12.75;11.00;;;;;13.55;63.78;101478.03;5039935;28;70444;-60
2021/09/23 02:42:03;;;;;;;;;12.50;11.00;;;;;13.55;64.55;101474.56;5058718;28;45251;-60
2021/09/23 02:44:28;;;;;;;;;11.75;10.00;;;;;13.50;64.47;101481.09;5058725;28;45240;-60
2021/09/23 02:46:53;;;;;;;;;10.25;10.00;;;;;13.46;64.69;101484.97;5058072;28;57747;-60
2021/09/23 02:49:19;;;;;;;;;13.00;10.50;;;;;13.44;64.44;101484.25;5057641;28;71546;-60
2021/09/23 02:51:44;;;;;;;;;14.75;12.25;;;;;13.43;64.31;101479.13;5057537;28;69901;-60
2021/09/23 02:54:09;;;;;;;;;12.00;12.00;;;;;13.44;64.53;101480.78;5057809;28;60940;-60
2021/09/23 02:56:35;;;;;;;;;15.50;13.25;;;;;13.43;64.57;101481.75;5057784;28;61516;-60
2021/09/23 02:59:00;;;;;;;;;12.00;10.75;;;;;13.44;64.79;101481.59;5057347;28;74813;-60
2021/09/23 03:01:26;;;;;;;;;14.50;10.50;;;;;13.43;64.80;101474.66;5057674;28;65742;-60
2021/09/23 03:03:51;;;;;;;;;12.25;12.00;;;;;13.43;65.00;101472.00;5057664;28;65206;-60
2021/09/23 03:06:16;;;;;;;;;14.75;12.50;;;;;13.43;64.74;101465.91;5057628;28;61882;-60
2021/09/23 03:08:42;;;;;;;;;11.75;10.75;;;;;13.41;64.57;101471.31;5057285;28;71879;-61
2021/09/23 03:11:07;;;;;;;;;14.00;10.25;;;;;13.38;64.29;101466.25;5057192;28;70665;-59
2021/09/23 03:13:32;;;;;;;;;11.50;11.50;;;;;13.37;63.97;101469.88;5058287;28;45701;-61
2021/09/23 03:15:58;;;;;;;;;10.50;10.50;;;;;13.36;64.05;101465.56;5039345;28;64095;-60
2021/09/23 03:18:23;;;;;;;;;13.50;12.00;;;;;13.34;64.34;101455.16;5056139;28;73881;-60
2021/09/23 03:20:49;;;;;;;;;15.75;12.75;;;;;13.35;64.27;101467.38;5057820;28;45352;-60
2021/09/23 03:23:14;;;;;;;;;15.25;12.00;;;;;13.34;64.24;101464.84;5057815;28;45299;-60
2021/09/23 03:25:40;;;;;;;;;15.50;12.00;;;;;13.31;64.49;101460.69;5058131;28;45642;-60
2021/09/23 03:28:05;;;;;;;;;12.75;12.25;;;;;13.30;64.49;101458.16;5057834;28;46367;-60
2021/09/23 03:30:32;;;;;;;;;13.75;11.00;;;;;13.29;63.64;101461.75;5023401;28;45336;-60
2021/09/23 03:32:57;;;;;;;;;11.50;10.50;;;;;13.27;63.76;101461.06;5057966;28;45390;-60
2021/09/23 03:35:23;;;;;;;;;14.50;12.25;;;;;13.25;64.14;101455.09;5057812;28;45502;-60
2021/09/23 03:37:49;;;;;;;;;12.75;10.00;;;;;13.26;64.09;101451.47;5057296;28;56732;-60
2021/09/23 03:40:14;;;;;;;;;14.25;12.00;;;;;13.24;64.16;101446.34;5039794;28;45401;-60
2021/09/23 03:42:39;;;;;;;;;12.50;11.25;;;;;13.21;63.61;101444.81;5057255;28;60652;-60
2021/09/23 03:45:05;;;;;;;;;16.00;11.00;;;;;13.20;63.74;101432.56;5056914;28;63480;-60
2021/09/23 03:47:30;;;;;;;;;14.00;11.25;;;;;13.17;63.98;101426.72;5057564;28;46327;-60
2021/09/23 03:49:56;;;;;;;;;12.00;10.00;;;;;13.14;63.73;101422.53;5056749;28;66703;-60
2021/09/23 03:52:21;;;;;;;;;15.00;11.75;;;;;13.11;64.15;101428.09;5057757;28;45680;-60
2021/09/23 03:54:47;;;;;;;;;12.00;10.00;;;;;13.10;63.79;101434.31;5057715;28;45602;-60
2021/09/23 03:57:12;;;;;;;;;12.00;11.00;;;;;13.06;64.25;101435.56;5038736;28;70317;-60
2021/09/23 03:59:37;;;;;;;;;12.00;12.00;;;;;13.06;64.10;101435.56;5056627;28;66441;-60
2021/09/23 04:02:03;;;;;;;;;14.50;11.75;;;;;13.05;63.91;101439.16;5057351;28;45257;-60
2021/09/23 04:04:28;;;;;;;;;10.25;10.25;;;;;13.02;63.93;101445.50;5057373;28;45335;-60
2021/09/23 04:06:54;;;;;;;;;10.00;10.00;;;;;13.02;64.55;101452.59;5056376;28;68320;-60
2021/09/23 04:09:19;;;;;;;;;11.00;10.75;;;;;12.99;64.44;101456.31;5057359;28;45378;-60
2021/09/23 04:11:44;;;;;;;;;13.00;11.50;;;;;12.97;64.59;101452.16;5057526;28;45798;-60
2021/09/23 04:14:10;;;;;;;;;19.00;17.50;;;;;12.94;64.13;101455.03;5057419;28;45596;-60
2021/09/23 04:16:35;;;;;;;;;17.25;14.00;;;;;12.90;64.25;101452.66;5057047;28;46436;-60
2021/09/23 04:19:01;;;;;;;;;14.50;11.50;;;;;12.89;64.66;101456.25;5056389;28;65935;-61
2021/09/23 04:21:26;;;;;;;;;11.75;10.50;;;;;12.86;64.39;101448.59;5039340;28;45397;-61
2021/09/23 04:23:52;;;;;;;;;16.00;11.25;;;;;12.86;64.70;101450.44;5037089;28;45545;-60
2021/09/23 04:26:17;;;;;;;;;14.50;11.50;;;;;12.83;64.92;101448.88;5035999;28;73976;-60
2021/09/23 04:28:43;;;;;;;;;13.50;13.00;;;;;12.79;65.25;101451.91;5036017;28;71017;-60
2021/09/23 04:31:08;;;;;;;;;12.00;10.50;;;;;12.75;64.75;101449.50;5036313;28;55616;-60
2021/09/23 04:33:33;;;;;;;;;13.00;11.50;;;;;12.73;64.87;101453.22;5036844;28;45367;-60
2021/09/23 04:35:59;;;;;;;;;15.00;12.50;;;;;12.71;64.86;101449.91;5035811;28;68509;-60
2021/09/23 04:38:24;;;;;;;;;13.75;11.00;;;;;12.72;64.46;101454.19;5035821;28;69034;-60
2021/09/23 04:40:50;;;;;;;;;13.50;12.00;;;;;12.71;64.56;101453.38;5035881;28;63320;-60
2021/09/23 04:43:15;;;;;;;;;15.00;13.00;;;;;12.71;64.47;101448.09;5036561;28;45312;-60
2021/09/23 04:45:41;;;;;;;;;11.50;10.75;;;;;12.69;64.91;101444.75;5036537;28;45744;-60
2021/09/23 04:48:06;;;;;;;;;14.25;11.00;;;;;12.68;64.68;101442.25;5035952;28;58169;-60
2021/09/23 04:50:31;;;;;;;;;13.00;12.50;;;;;12.66;64.37;101441.53;5036571;28;45292;-60
2021/09/23 04:52:57;;;;;;;;;16.25;13.00;;;;;12.65;64.93;101450.41;5035645;28;66544;-60
2021/09/23 04:55:22;;;;;;;;;13.25;13.25;;;;;12.65;64.95;101447.78;5036250;28;46152;-60
2021/09/23 04:57:47;;;;;;;;;12.75;12.00;;;;;12.64;65.31;101451.38;5035593;28;63677;-60
2021/09/23 05:00:13;;;;;;;;;12.50;12.25;;;;;12.63;64.94;101447.88;5035435;28;64372;-60
2021/09/23 05:02:39;;;;;;;;;17.25;15.00;;;;;12.62;65.42;101448.84;5035485;28;45479;-60
2021/09/23 05:05:04;;;;;;;;;14.50;13.00;;;;;12.61;65.25;101449.81;5035252;28;67083;-60
2021/09/23 05:07:30;;;;;;;;;15.00;13.00;;;;;12.58;65.16;101452.69;5036046;28;45297;-60
2021/09/23 05:09:55;;;;;;;;;17.00;13.25;;;;;12.58;65.15;101465.88;5036419;28;45248;-60
2021/09/23 05:12:21;;;;;;;;;14.25;13.00;;;;;12.56;65.86;101466.03;5036386;28;45169;-60
2021/09/23 05:14:46;;;;;;;;;13.00;11.75;;;;;12.55;65.69;101463.50;5034526;28;60507;-60
2021/09/23 05:17:12;;;;;;;;;14.75;12.25;;;;;12.51;66.02;101468.19;5033718;28;68837;-60
2021/09/23 05:19:37;;;;;;;;;14.00;11.50;;;;;12.48;66.81;101468.44;5034717;28;45325;-60
2021/09/23 05:22:02;;;;;;;;;11.75;11.25;;;;;12.44;66.78;101477.56;5039530;28;45347;-60
2021/09/23 05:24:28;;;;;;;;;15.00;13.75;;;;;12.42;66.33;101468.94;5054963;28;45539;-60
2021/09/23 05:26:53;;;;;;;;;15.50;13.00;;;;;12.42;66.30;101476.84;5054579;28;58361;-60
2021/09/23 05:29:19;;;;;;;;;18.00;14.75;;;;;12.41;66.30;101480.44;5054147;28;67582;-60
2021/09/23 05:31:44;;;;;;;;;14.50;14.00;;;;;12.39;65.64;101485.88;5054809;28;62073;-60
2021/09/23 05:34:09;;;;;;;;;17.25;13.00;;;;;12.38;65.59;101491.25;5055010;28;69543;-60
2021/09/23 05:36:35;;;;;;;;;20.50;18.00;;;;;12.39;65.56;101493.78;5055307;28;64467;-60
2021/09/23 05:39:03;;;;;;;;;14.00;13.50;;;;;12.38;65.65;101489.47;5055243;28;64412;-60
2021/09/23 05:41:28;;;;;;;;;18.00;14.50;;;;;12.37;66.26;101492.19;5038948;28;45217;-60
2021/09/23 05:43:53;;;;;;;;;16.50;14.75;;;;;12.35;66.01;101488.84;5059334;28;45338;-60
2021/09/23 05:46:19;;;;;;;;;16.00;15.00;;;;;12.34;66.40;101482.75;5059223;28;45351;-60
2021/09/23 05:48:44;;;;;;;;;18.00;14.75;;;;;12.31;66.31;101489.09;5059556;28;45232;-60
2021/09/23 05:51:10;;;;;;;;;16.50;14.75;;;;;12.28;66.25;101494.63;5058690;28;64981;-60
2021/09/23 05:53:35;;;;;;;;;14.50;12.75;;;;;12.26;66.87;101493.91;5058348;28;72099;-60
2021/09/23 05:56:00;;;;;;;;;18.00;14.50;;;;;12.28;66.65;101499.06;5058415;28;67531;-60
2021/09/23 05:58:26;;;;;;;;;14.25;14.00;;;;;12.27;66.83;101492.13;5058499;28;64831;-60
2021/09/23 06:00:51;;;;;;;;;16.75;15.00;;;;;12.26;66.24;101493.91;5058425;28;66959;-60
2021/09/23 06:03:17;;;;;;;;;19.00;15.00;;;;;12.28;67.13;101497.25;5040964;28;49714;-60
2021/09/23 06:05:42;;;;;;;;;14.00;14.00;;;;;12.30;67.33;101500.59;5059173;28;45273;-60
2021/09/23 06:08:08;;;;;;;;;17.75;16.00;;;;;12.32;67.41;101508.41;5058201;28;68941;-60
2021/09/23 06:10:33;;;;;;;;;17.25;16.00;;;;;12.35;67.26;101505.53;5058146;28;66347;-60
2021/09/23 06:12:58;;;;;;;;;22.25;17.75;;;;;12.38;67.19;101509.69;5058974;28;46316;-60
2021/09/23 06:15:24;;;;;;;;;17.25;15.25;;;;;12.40;67.25;101503.34;5040917;28;45558;-60
2021/09/23 06:17:49;;;;;;;;;23.00;18.00;;;;;12.45;67.68;101497.69;5059051;28;45889;-60
2021/09/23 06:20:15;;;;;;;;;17.00;14.00;;;;;12.49;68.23;101504.41;5040742;28;45265;-60
2021/09/23 06:22:40;;;;;;;;;16.75;16.75;;;;;12.52;68.10;101512.06;5058353;28;45415;-60
2021/09/23 06:25:06;;;;;;;;;19.50;18.00;;;;;12.55;67.95;101505.69;5058731;28;45501;-60
2021/09/23 06:27:31;;;;;;;;;18.75;16.75;;;;;12.59;68.44;101507.97;5040928;28;45419;-60
2021/09/23 06:29:57;;;;;;;;;16.50;14.25;;;;;12.61;68.56;101508.66;5058006;28;66097;-60
2021/09/23 06:32:22;;;;;;;;;18.25;16.75;;;;;12.63;68.83;101508.53;5058443;28;53873;-60
2021/09/23 06:34:47;;;;;;;;;19.25;15.50;;;;;12.66;68.20;101515.38;5057665;28;66833;-60
2021/09/23 06:37:13;;;;;;;;;19.25;18.25;;;;;12.70;68.79;101514.97;5057998;28;61324;-60
2021/09/23 06:39:40;;;;;;;;;17.50;15.50;;;;;12.74;68.77;101520.81;5058652;28;45358;-60
2021/09/23 06:42:06;;;;;;;;;23.75;19.25;;;;;12.77;68.73;101515.31;5040456;28;45394;-60
2021/09/23 06:44:31;;;;;;;;;23.50;18.25;;;;;12.80;68.78;101520.31;5058578;28;45382;-60
2021/09/23 06:46:56;;;;;;;;;18.25;17.25;;;;;12.87;68.50;101523.31;5058156;28;53777;-60
2021/09/23 06:49:23;;;;;;;;;22.75;19.25;;;;;12.92;68.37;101526.41;5057852;28;64566;-60
2021/09/23 06:51:50;;;;;;;;;23.75;19.75;;;;;13.01;68.61;101532.72;5058245;28;46145;-60
2021/09/23 06:54:16;;;;;;;;;21.00;17.25;;;;;13.07;68.37;101522.47;5058117;28;45845;-60
2021/09/23 06:56:41;;;;;;;;;20.25;19.25;;;;;13.16;68.09;101520.03;5058608;28;45400;-59
2021/09/23 06:59:06;;;;;;;;;22.25;19.25;;;;;13.27;67.85;101524.41;5058447;28;45451;-60
2021/09/23 07:01:33;;;;;;;;;22.75;19.00;;;;;13.36;67.78;101523.63;5057966;28;46568;-60
2021/09/23 07:03:59;;;;;;;;;24.25;22.00;;;;;13.46;67.44;101534.28;5040353;28;45343;-60
2021/09/23 07:06:24;;;;;;;;;24.75;22.75;;;;;13.57;67.07;101528.09;5057492;28;66002;-60
2021/09/23 07:08:50;;;;;;;;;46.50;38.75;;;;;13.67;67.56;101525.47;5058224;28;45225;-61
2021/09/23 07:11:15;;;;;;;;;28.00;26.00;;;;;13.76;66.85;101525.56;5057924;28;46784;-60
2021/09/23 07:13:40;;;;;;;;;26.00;23.75;;;;;13.83;67.00;101517.91;5057651;28;56343;-60
2021/09/23 07:16:06;;;;;;;;;22.50;20.25;;;;;13.93;66.51;101525.88;5057533;28;54847;-60
2021/09/23 07:18:32;;;;;;;;;27.50;22.50;;;;;14.01;66.25;101520.75;5057817;28;45598;-60
2021/09/23 07:20:58;;;;;;;;;26.25;20.25;;;;;14.14;65.78;101514.41;5056900;28;64134;-61
2021/09/23 07:23:24;;;;;;;;;26.00;21.50;;;;;14.29;65.64;101517.47;5057617;28;45244;-61
2021/09/23 07:25:51;;;;;;;;;23.25;22.00;;;;;14.44;65.26;101518.78;5039677;28;45488;-61
2021/09/23 07:28:16;;;;;;;;;24.75;22.25;;;;;14.60;65.01;101522.66;5057812;28;45358;-61
2021/09/23 07:30:42;;;;;;;;;23.75;22.25;;;;;14.73;64.22;101510.03;5057187;28;57963;-60
2021/09/23 07:33:07;;;;;;;;;30.75;22.50;;;;;14.89;63.96;101508.63;5057581;28;45419;-60
2021/09/23 07:35:34;;;;;;;;;22.00;18.00;;;;;15.06;63.73;101491.19;5039709;28;45408;-60
2021/09/23 07:38:00;;;;;;;;;27.25;21.25;;;;;15.22;63.51;101504.69;5057897;28;45586;-61
2021/09/23 07:40:25;;;;;;;;;27.25;22.50;;;;;15.36;63.02;101497.28;5057414;28;46271;-60
2021/09/23 07:42:52;;;;;;;;;27.00;25.00;;;;;15.57;62.22;101497.88;5056592;28;69574;-61
2021/09/23 07:45:18;;;;;;;;;22.50;20.25;;;;;15.78;61.40;101502.13;5057561;28;45260;-60
2021/09/23 07:47:43;;;;;;;;;30.25;22.00;;;;;16.02;61.34;101503.41;5055657;28;59175;-60
2021/09/23 07:50:08;;;;;;;;;26.25;23.75;;;;;16.27;60.61;101499.22;5052329;28;64754;-60
2021/09/23 07:52:34;;;;;;;;;24.25;23.00;;;;;16.53;59.96;101505.59;5055175;28;45466;-60
2021/09/23 07:55:00;;;;;;;;;24.75;21.25;;;;;16.79;59.69;101504.84;5055258;28;45455;-60
2021/09/23 07:57:25;;;;;;;;;28.75;21.75;;;;;17.04;58.94;101503.25;5055302;28;45516;-60
2021/09/23 07:59:50;;;;;;;;;21.00;20.25;;;;;17.27;58.36;101495.59;5053121;28;75557;-60
2021/09/23 08:02:16;;;;;;;;;32.50;25.50;;;;;17.50;57.62;101500.34;5054686;28;45639;-61
2021/09/23 08:04:41;;;;;;;;;21.25;16.25;;;;;17.66;57.28;101486.31;5052612;28;66810;-60
2021/09/23 08:07:07;;;;;;;;;21.50;19.75;;;;;17.84;57.07;101491.53;5054017;28;58579;-60
2021/09/23 08:09:32;;;;;;;;;24.25;20.50;;;;;18.04;56.73;101499.25;5052826;28;48007;-60
2021/09/23 08:11:57;;;;;;;;;18.50;17.50;;;;;18.26;55.97;101497.00;5054623;28;45409;-60
2021/09/23 08:14:25;;;;;;;;;22.50;21.25;;;;;18.45;55.62;101494.03;5054557;28;63678;-60
2021/09/23 08:16:51;;;;;;;;;22.50;19.25;;;;;18.66;55.60;101501.53;5054852;28;45502;-60
2021/09/23 08:19:16;;;;;;;;;19.25;18.50;;;;;18.84;55.01;101498.69;5035975;28;46584;-60
2021/09/23 08:21:41;;;;;;;;;25.50;19.75;;;;;19.01;54.44;101495.22;5054389;28;45324;-60
2021/09/23 08:24:07;;;;;;;;;20.75;15.50;;;;;19.17;54.34;101491.69;5053814;28;65581;-59
2021/09/23 08:26:32;;;;;;;;;20.75;17.25;;;;;19.34;53.68;101487.19;5054580;28;49319;-60
2021/09/23 08:28:57;;;;;;;;;21.75;17.25;;;;;19.49;52.82;101489.97;5051600;28;64596;-60
2021/09/23 08:31:23;;;;;;;;;18.25;17.50;;;;;19.63;52.65;101496.41;5052508;28;68113;-60
2021/09/23 08:33:49;;;;;;;;;18.00;15.25;;;;;19.76;51.68;101501.16;5053456;28;45423;-60
2021/09/23 08:36:14;;;;;;;;;12.75;12.75;;;;;19.92;51.88;101490.47;5053878;28;45458;-60
2021/09/23 08:38:40;;;;;;;;;17.75;17.00;;;;;20.11;51.47;101493.72;5035603;28;46053;-60
2021/09/23 08:41:05;;;;;;;;;12.75;12.50;;;;;20.31;50.99;101489.56;5053298;28;56882;-60
2021/09/23 08:43:32;;;;;;;;;14.50;13.50;;;;;20.49;49.99;101482.25;5054133;28;46065;-60
2021/09/23 08:45:58;;;;;;;;;15.25;12.00;;;;;20.63;49.04;101480.66;5054150;28;45491;-60
2021/09/23 08:48:23;;;;;;;;;15.25;14.25;;;;;20.77;49.22;101493.25;5018999;28;46571;-60
2021/09/23 08:50:48;;;;;;;;;12.50;12.50;;;;;20.89;48.08;101491.78;5020302;28;45339;-59
2021/09/23 08:53:14;;;;;;;;;15.25;12.00;;;;;21.00;47.74;101495.03;5054949;28;49039;-60
2021/09/23 08:55:39;;;;;;;;;14.00;13.00;;;;;21.08;48.19;101488.78;5054191;28;65730;-59
2021/09/23 08:58:05;;;;;;;;;15.25;11.75;;;;;21.20;47.19;101498.81;5054071;28;46075;-60
2021/09/23 09:00:32;;;;;;;;;16.00;15.25;;;;;21.28;47.24;101495.25;5053790;28;45407;-60
2021/09/23 09:03:08;;;;;;;;;17.00;15.50;;;;;21.37;47.78;101498.66;5054439;28;45456;-60
2021/09/23 09:05:34;;;;;;;;;15.25;14.25;;;;;21.46;46.98;101502.91;5054555;28;45421;-60
2021/09/23 09:08:04;;;;;;;;;20.00;17.75;;;;;21.50;46.96;101503.34;5054035;28;47217;-60
2021/09/23 09:10:30;;;;;;;;;15.00;15.00;;;;;21.58;46.96;101492.56;5069592;28;45677;-60
2021/09/23 09:12:58;;;;;;;;;15.50;15.25;;;;;21.67;46.82;101496.00;5054230;28;45423;-60
2021/09/23 09:15:29;;;;;;;;;14.00;12.75;;;;;21.77;46.85;101503.75;5036139;28;45543;-60
2021/09/23 09:17:54;;;;;;;;;13.50;12.50;;;;;21.90;46.07;101509.25;5053988;28;46337;-60
2021/09/23 09:20:20;;;;;;;;;17.25;15.00;;;;;22.03;45.28;101500.53;5037944;28;72662;-60
2021/09/23 09:22:45;;;;;;;;;17.75;13.50;;;;;22.12;45.15;101485.19;5056502;28;63541;-60
2021/09/23 09:25:12;;;;;;;;;12.25;12.25;;;;;22.18;44.98;101488.97;5057652;28;45585;-61
2021/09/23 09:27:39;;;;;;;;;13.50;13.50;;;;;22.32;44.38;101485.38;5056684;28;45505;-60
2021/09/23 09:30:15;;;;;;;;;13.00;12.00;;;;;22.45;44.42;101490.09;5056279;28;45508;-60
2021/09/23 09:32:48;;;;;;;;;13.00;11.50;;;;;22.57;44.17;101489.56;5055914;28;45330;-60
2021/09/23 09:35:22;;;;;;;;;14.00;12.00;;;;;22.66;44.23;101491.91;5055769;28;45451;-60
2021/09/23 09:37:49;;;;;;;;;15.25;11.25;;;;;22.81;43.69;101493.66;5056026;28;46165;-60
2021/09/23 09:40:36;;;;;;;;;19.25;12.25;;;;;22.92;43.54;101495.81;5038874;28;46299;-60
2021/09/23 09:43:07;;;;;;;;;13.50;13.00;;;;;23.01;42.92;101493.84;5056730;28;45593;-60
2021/09/23 09:45:33;;;;;;;;;8.75;8.75;;;;;23.10;42.53;101491.81;5057561;28;45253;-60
2021/09/23 09:47:59;;;;;;;;;8.50;8.50;;;;;23.18;42.38;101488.16;5056897;28;46383;-60
2021/09/23 09:50:31;;;;;;;;;12.75;12.00;;;;;23.29;41.80;101476.91;5056937;28;46283;-60
2021/09/23 09:53:07;;;;;;;;;15.75;12.50;;;;;23.40;41.92;101470.16;5057509;28;45315;-60
2021/09/23 09:55:39;;;;;;;;;15.75;12.00;;;;;23.51;41.38;101471.47;5057365;28;45421;-61
2021/09/23 09:58:05;;;;;;;;;17.00;13.00;;;;;23.60;40.65;101475.59;5039820;28;46557;-61
2021/09/23 10:00:30;;;;;;;;;11.75;10.00;;;;;23.67;40.88;101471.09;5054241;28;45481;-60
2021/09/23 10:02:56;;;;;;;;;13.75;12.75;;;;;23.77;40.82;101470.72;5057023;28;45481;-61
2021/09/23 10:05:21;;;;;;;;;17.50;13.50;;;;;23.83;40.75;101477.97;5039480;28;45635;-60
2021/09/23 10:07:48;;;;;;;;;16.25;15.25;;;;;23.90;40.33;101469.94;5056299;28;46279;-60
2021/09/23 10:10:15;;;;;;;;;15.75;13.00;;;;;23.98;40.67;101474.28;5056387;28;46020;-60
2021/09/23 10:12:41;;;;;;;;;19.00;14.50;;;;;24.08;40.84;101474.75;5057168;28;45585;-60
2021/09/23 10:15:08;;;;;;;;;19.75;17.00;;;;;24.19;39.82;101470.63;5051681;28;45618;-60
2021/09/23 10:17:33;;;;;;;;;13.00;12.50;;;;;24.25;40.03;101467.13;5056684;28;45442;-60
2021/09/23 10:20:03;;;;;;;;;14.00;12.75;;;;;24.29;39.65;101468.38;5055460;28;69291;-60
2021/09/23 10:22:29;;;;;;;;;10.75;10.50;;;;;24.32;39.80;101466.31;5056159;28;45507;-61
2021/09/23 10:24:54;;;;;;;;;10.25;10.00;;;;;24.40;40.26;101466.94;5038636;28;45535;-61
2021/09/23 10:30:05;;;;;;;;;14.50;11.75;;;;;24.64;38.75;101455.81;5040361;28;45357;-60
2021/09/23 10:32:30;;;;;;;;;12.00;10.00;;;;;24.63;39.03;101454.97;5038456;28;45407;-61
2021/09/23 10:34:56;;;;;;;;;10.25;8.25;;;;;24.66;39.18;101451.88;5037679;28;53424;-61
2021/09/23 10:37:21;;;;;;;;;10.50;9.75;;;;;24.72;38.57;101445.69;5056057;28;46463;-60
2021/09/23 10:39:47;;;;;;;;;12.00;9.75;;;;;24.88;39.08;101443.59;5037414;28;45454;-61
2021/09/23 10:42:20;;;;;;;;;11.75;8.25;;;;;24.99;38.19;101440.25;5021700;28;45884;-61
2021/09/23 10:44:47;;;;;;;;;8.50;8.50;;;;;25.11;38.15;101440.44;5056323;28;45341;-61
2021/09/23 10:47:13;;;;;;;;;8.50;8.00;;;;;25.23;37.71;101435.22;5054658;28;45732;-60
2021/09/23 10:49:38;;;;;;;;;12.25;9.00;;;;;25.31;37.45;101442.22;5054943;28;64276;-61
2021/09/23 10:52:04;;;;;;;;;13.25;11.25;;;;;25.35;36.69;101435.38;5055040;28;67246;-60
2021/09/23 10:54:29;;;;;;;;;10.75;9.00;;;;;25.38;36.54;101434.97;5055323;28;45571;-61
2021/09/23 10:56:54;;;;;;;;;8.25;7.00;;;;;25.44;36.29;101428.75;5054794;28;71832;-61
2021/09/23 10:59:20;;;;;;;;;12.25;10.50;;;;;25.55;36.56;101416.50;5019933;28;68059;-61
2021/09/23 11:01:46;;;;;;;;;10.75;10.75;;;;;25.66;36.59;101408.78;5038078;28;45434;-60
2021/09/23 11:04:12;;;;;;;;;10.50;9.25;;;;;25.72;36.36;101411.44;5037960;28;45392;-61
2021/09/23 11:06:39;;;;;;;;;12.50;10.00;;;;;25.75;35.70;101402.91;5037217;28;46168;-61
2021/09/23 11:09:24;;;;;;;;;8.75;8.00;;;;;25.85;35.85;101404.31;5054486;28;45746;-61